Salt Flat, TX

12:28 AM CST on February 22, 2017 (GMT -0600)
Guadalupe Pass | | Change Station
Active Advisory: High Wind Watch

Elev 5453 ft 31.83 °N, 104.80 °W | Updated 37 minutes ago

Clear
Clear
52 °F
Feels Like 52 °F
N
17
Wind Variable Wind from WSW

Today
High -- | Low -- °F
--% Chance of Precip.
Yesterday
High -- | Low -- °F
Precip. -- in
Pressure 30.08 in
Visibility 10.0 miles
Clouds Clear
Dew Point 32 °F
Humidity 47%
Rainfall 0.00 in
Snow Depth Not available.
7:33 AM 6:51 PM
Waning Crescent, 19% visible
METAR KGDP 220551Z AUTO 24015KT 10SM CLR 11/00 A3022 RMK AO2 SLP185 T01110000 10200 20111 58008
Pressure 30.08 in
Visibility 10.0 miles
Clouds Clear
Dew Point 32 °F
Humidity 47%
Rainfall 0.00 in
Snow Depth Not available.
7:33 AM 6:51 PM
Waning Crescent, 19% visible
METAR KGDP 220551Z AUTO 24015KT 10SM CLR 11/00 A3022 RMK AO2 SLP185 T01110000 10200 20111 58008

Get Your Daily Forecast Email!

Thanks for signing up!

Be on the lookout for a verification email in your inbox.

You'll start receiving the daily forecast at 8 AM.

×

10-Day Weather Forecast

Almanac

Astronomy

Feb. 22, 2017 Rise Set
Actual Time
Civil Twilight
Nautical Twilight
Astronomical Twilight
Moon
Length of Visible Light
Length of Day
Tomorrow will be .
, % of the Moon is Illuminated

Today's Extremes

State Highs State Lows

Community

WunderPhotos

Upload Photos

1,962,540 photos uploaded!

WunderBlog® & News

Nearby

Air Quality

  Air Quality AQ Index Pollutant
Not available.

Snow Depth

Station Depth Elevation

Earthquake Activity

City Distance Mag. Time & Date
Minimum magnitude displayed is 2.5.

Coastal Water Temperatures

Place Temperature

Stations

Nearby Weather Stations

Station Location Temp. Windchill Dew Point Humidity Wind Precip. Elev Updated Type
                   

Watches & Warnings

High Wind Watch
Issued: 12:16 PM MST Feb. 21, 2017 – National Weather Service

... High wind watch in effect from Thursday morning through
Thursday evening...

* timing... 9 am MST / 10 am CST Thursday to midnight CST / 11 PM
MST Thursday.

* Winds... southwest winds 35 to 55 mph. Gusts 65 to 75 mph.

* Impacts... winds will be particularly hazardous at higher
elevations where the strongest winds are likely to occur. Be
especially careful driving in these mountainous areas. Abrupt
changes in wind occurs when rounding sharp turns or passing
obstacles to the wind resulting in loss of control of vehicles.

Precautionary/preparedness actions...

A high wind watch means there is the potential for a hazardous
high wind event. Sustained winds of at least 40 mph, or gusts of
58 mph or stronger may occur. Continue to monitor the latest
forecasts.